Time;durP1;ratioP1;P1;durP2;ratioP2;P2;SDS_P1;SDS_P2;PMS_P1;PMS_P2;Temp;Humidity;BMP_temperature;BMP_pressure;BME280_temperature;BME280_humidity;BME280_pressure;Samples;Min_cycle;Max_cycle;Signal;HPM_P1;HPM_P2
2021/05/04 00:02:03;;;;;;;4.32;2.55;;;8.60;86.10;;;;;;5014115;28;20081;-80
2021/05/04 00:04:30;;;;;;;5.38;2.30;;;8.70;86.70;;;;;;5028946;28;20103;-79
2021/05/04 00:06:57;;;;;;;4.32;2.13;;;8.70;87.10;;;;;;5017932;28;20050;-81
2021/05/04 00:09:24;;;;;;;4.75;2.10;;;8.70;87.20;;;;;;5017778;28;20092;-80
2021/05/04 00:11:52;;;;;;;4.38;2.40;;;8.70;87.80;;;;;;5015984;28;20511;-80
2021/05/04 00:14:19;;;;;;;4.50;2.50;;;8.70;87.80;;;;;;5017933;28;20052;-81
2021/05/04 00:16:46;;;;;;;4.50;2.22;;;8.70;87.70;;;;;;5017566;28;20619;-79
2021/05/04 00:19:12;;;;;;;5.38;2.78;;;8.70;87.70;;;;;;5017587;28;20492;-80
2021/05/04 00:21:39;;;;;;;6.28;2.50;;;8.70;87.80;;;;;;5016835;28;20073;-81
2021/05/04 00:24:07;;;;;;;4.72;2.90;;;8.80;87.90;;;;;;5016909;28;20143;-81
2021/05/04 00:26:34;;;;;;;4.45;2.40;;;8.70;87.80;;;;;;5017032;28;20108;-81
2021/05/04 00:29:02;;;;;;;6.05;2.58;;;8.80;87.80;;;;;;5017091;28;20054;-81
2021/05/04 00:31:28;;;;;;;4.30;2.60;;;8.70;87.60;;;;;;5017379;28;20452;-81
2021/05/04 00:33:55;;;;;;;4.45;2.97;;;8.60;87.30;;;;;;5017548;28;20096;-82
2021/05/04 00:36:22;;;;;;;4.40;2.50;;;8.60;87.50;;;;;;5017488;28;20105;-80
2021/05/04 00:38:49;;;;;;;4.72;2.88;;;8.50;87.70;;;;;;5016973;28;20042;-80
2021/05/04 00:41:16;;;;;;;5.50;2.70;;;8.50;88.10;;;;;;5017474;28;20459;-81
2021/05/04 00:43:43;;;;;;;5.05;2.47;;;8.50;88.40;;;;;;5017234;28;20085;-81
2021/05/04 00:46:10;;;;;;;7.68;3.78;;;8.50;88.60;;;;;;5017876;28;20460;-80
2021/05/04 00:48:37;;;;;;;6.85;3.13;;;8.50;89.20;;;;;;5016587;28;20089;-80
2021/05/04 00:51:04;;;;;;;6.30;2.80;;;8.50;89.30;;;;;;5017039;28;20065;-81
2021/05/04 00:53:32;;;;;;;5.78;2.25;;;8.50;89.50;;;;;;5017273;28;20411;-81
2021/05/04 00:55:59;;;;;;;4.85;2.72;;;8.40;89.50;;;;;;5017612;28;20496;-81
2021/05/04 00:58:26;;;;;;;4.03;2.30;;;8.60;89.80;;;;;;5017132;28;20105;-81
2021/05/04 01:00:53;;;;;;;6.95;2.92;;;8.60;89.60;;;;;;5017329;28;20050;-82
2021/05/04 01:03:22;;;;;;;4.28;2.50;;;8.60;89.60;;;;;;5016779;28;20085;-80
2021/05/04 01:05:48;;;;;;;4.90;2.80;;;8.60;89.80;;;;;;5016949;28;20148;-81
2021/05/04 01:08:15;;;;;;;4.05;2.33;;;8.60;90.10;;;;;;5016579;28;20162;-81
2021/05/04 01:10:42;;;;;;;3.72;2.25;;;8.60;90.20;;;;;;5016810;28;20085;-80
2021/05/04 01:13:08;;;;;;;4.82;2.70;;;8.60;90.30;;;;;;5017735;28;20136;-83
2021/05/04 01:15:35;;;;;;;4.82;2.45;;;8.70;90.40;;;;;;5017164;28;20137;-81
2021/05/04 01:18:02;;;;;;;4.95;2.45;;;8.60;90.20;;;;;;5016263;28;20077;-82
2021/05/04 01:20:29;;;;;;;7.07;3.22;;;8.50;90.60;;;;;;5016481;28;20126;-82
2021/05/04 01:22:57;;;;;;;5.10;2.80;;;8.30;90.50;;;;;;5016076;28;20092;-81
2021/05/04 01:25:23;;;;;;;5.30;3.10;;;8.20;90.70;;;;;;5016290;28;20129;-83
2021/05/04 01:27:50;;;;;;;4.97;3.00;;;7.90;91.00;;;;;;5015768;28;20141;-81
2021/05/04 01:30:17;;;;;;;5.53;3.15;;;7.90;91.00;;;;;;5015674;28;20089;-81
2021/05/04 01:32:44;;;;;;;6.25;3.00;;;7.80;91.30;;;;;;5015466;28;20081;-80
2021/05/04 01:35:12;;;;;;;5.18;3.10;;;7.80;91.40;;;;;;5015355;28;20499;-80
2021/05/04 01:37:39;;;;;;;5.53;3.10;;;7.80;91.40;;;;;;5015822;28;20065;-80
2021/05/04 01:40:10;;;;;;;6.20;2.97;;;7.80;91.70;;;;;;5015455;28;20584;-81
2021/05/04 01:42:36;;;;;;;5.72;3.40;;;7.90;91.40;;;;;;5016331;28;20625;-82
2021/05/04 01:45:04;;;;;;;5.97;3.65;;;7.90;91.60;;;;;;5015395;28;20452;-81
2021/05/04 01:47:31;;;;;;;4.57;2.90;;;7.80;91.70;;;;;;5015466;28;20078;-82
2021/05/04 01:49:57;;;;;;;4.70;2.60;;;7.70;91.50;;;;;;5015446;28;20087;-83
2021/05/04 01:52:24;;;;;;;4.80;2.50;;;7.80;91.60;;;;;;5015584;28;20141;-80
2021/05/04 01:54:52;;;;;;;5.10;2.92;;;7.80;91.70;;;;;;5013649;28;20046;-80
2021/05/04 01:57:19;;;;;;;4.95;3.30;;;7.80;91.70;;;;;;5014690;28;20444;-81
2021/05/04 01:59:46;;;;;;;5.60;3.28;;;7.70;91.70;;;;;;5015108;28;20132;-81
2021/05/04 02:02:12;;;;;;;5.22;3.20;;;7.70;91.90;;;;;;5015007;28;20045;-81
2021/05/04 02:04:39;;;;;;;5.55;3.20;;;7.60;92.00;;;;;;5014738;28;20049;-81
2021/05/04 02:07:05;;;;;;;4.13;2.90;;;7.60;92.20;;;;;;5015198;28;20088;-80
2021/05/04 02:09:32;;;;;;;5.10;3.40;;;7.60;92.30;;;;;;5014955;28;20085;-80
2021/05/04 02:11:59;;;;;;;5.00;3.10;;;7.60;92.30;;;;;;5015091;28;20046;-80
2021/05/04 02:14:27;;;;;;;7.28;3.35;;;7.60;92.40;;;;;;5014469;28;20512;-81
2021/05/04 02:16:55;;;;;;;4.28;2.90;;;7.60;92.40;;;;;;5015006;28;20108;-80
2021/05/04 02:19:21;;;;;;;4.90;2.60;;;7.50;92.40;;;;;;5014812;28;20054;-80
2021/05/04 02:21:48;;;;;;;4.75;2.80;;;7.60;92.60;;;;;;5014824;28;20132;-80
2021/05/04 02:24:15;;;;;;;5.38;2.80;;;7.70;92.70;;;;;;5014395;28;20132;-80
2021/05/04 02:26:41;;;;;;;5.47;2.85;;;7.70;92.80;;;;;;5014506;28;20050;-80
2021/05/04 02:29:08;;;;;;;4.18;2.65;;;7.70;92.60;;;;;;5014844;28;20137;-80
2021/05/04 02:31:35;;;;;;;5.75;3.10;;;7.90;92.60;;;;;;5014482;28;20077;-80
2021/05/04 02:34:02;;;;;;;3.92;2.30;;;7.90;92.50;;;;;;5013522;28;20060;-80
2021/05/04 02:36:29;;;;;;;4.95;2.58;;;7.90;92.40;;;;;;5014267;28;20096;-81
2021/05/04 02:38:56;;;;;;;3.90;2.40;;;7.90;92.40;;;;;;5014743;28;20092;-80
2021/05/04 02:41:22;;;;;;;5.82;2.50;;;7.90;92.40;;;;;;5014403;28;20479;-81
2021/05/04 02:43:49;;;;;;;4.72;2.60;;;8.00;92.40;;;;;;5014221;28;20088;-81
2021/05/04 02:46:15;;;;;;;4.93;2.80;;;8.00;92.40;;;;;;5014871;28;20112;-81
2021/05/04 02:48:43;;;;;;;6.80;3.22;;;8.10;92.60;;;;;;5013090;28;20052;-81
2021/05/04 02:51:12;;;;;;;5.82;3.20;;;7.90;92.20;;;;;;5014540;28;20069;-81
2021/05/04 02:53:40;;;;;;;6.07;3.30;;;7.70;92.40;;;;;;5009614;28;20054;-83
2021/05/04 02:56:08;;;;;;;4.50;2.80;;;7.60;92.60;;;;;;4994992;28;20138;-81
2021/05/04 02:58:35;;;;;;;4.47;2.58;;;7.40;92.50;;;;;;4994933;28;20162;-81
2021/05/04 03:01:03;;;;;;;4.93;2.80;;;7.40;92.50;;;;;;4994760;28;20377;-80
2021/05/04 03:03:29;;;;;;;4.65;2.80;;;7.40;92.70;;;;;;5003474;28;20522;-80
2021/05/04 03:05:57;;;;;;;4.10;2.63;;;7.50;92.50;;;;;;5011675;28;20053;-80
2021/05/04 03:08:24;;;;;;;5.32;2.75;;;7.40;92.30;;;;;;5010257;28;20089;-80
2021/05/04 03:10:51;;;;;;;4.70;2.90;;;7.60;92.20;;;;;;5025455;28;20050;-81
2021/05/04 03:13:23;;;;;;;5.25;2.90;;;7.60;92.00;;;;;;5010729;28;20475;-79
2021/05/04 03:15:50;;;;;;;4.63;2.60;;;7.60;92.00;;;;;;5009827;28;20137;-80
2021/05/04 03:18:17;;;;;;;5.15;3.00;;;7.60;91.80;;;;;;5010681;28;20056;-79
2021/05/04 03:20:44;;;;;;;4.47;2.83;;;7.60;91.80;;;;;;5010805;28;20092;-79
2021/05/04 03:23:13;;;;;;;4.40;2.42;;;7.70;91.80;;;;;;5010619;28;20188;-79
2021/05/04 03:25:42;;;;;;;4.75;2.50;;;7.70;91.80;;;;;;5010930;28;20148;-80
2021/05/04 03:28:09;;;;;;;5.90;3.05;;;7.70;92.10;;;;;;5010669;28;20096;-80
2021/05/04 03:30:36;;;;;;;5.00;2.80;;;7.80;92.20;;;;;;5010799;28;20081;-81
2021/05/04 03:33:05;;;;;;;4.25;2.58;;;7.80;92.20;;;;;;5010312;28;20100;-80
2021/05/04 03:35:32;;;;;;;4.68;2.42;;;7.80;92.30;;;;;;5010301;28;20650;-80
2021/05/04 03:37:59;;;;;;;5.28;2.72;;;7.80;92.70;;;;;;5005514;28;20092;-80
2021/05/04 03:40:27;;;;;;;3.90;2.30;;;7.80;92.50;;;;;;4989974;28;20196;-80
2021/05/04 03:42:53;;;;;;;5.75;2.83;;;7.80;92.70;;;;;;4996205;28;20053;-80
2021/05/04 03:45:20;;;;;;;4.60;2.25;;;7.80;92.70;;;;;;5010817;28;20081;-80
2021/05/04 03:47:47;;;;;;;4.93;3.00;;;7.70;92.80;;;;;;5009983;28;20151;-80
2021/05/04 03:50:16;;;;;;;5.20;2.67;;;7.70;92.90;;;;;;5010214;28;20180;-81
2021/05/04 03:52:43;;;;;;;5.32;3.20;;;7.70;93.20;;;;;;5010339;28;20148;-80
2021/05/04 03:55:12;;;;;;;4.40;2.80;;;7.60;92.90;;;;;;5010146;28;20092;-81
2021/05/04 03:57:39;;;;;;;5.72;3.30;;;7.30;93.20;;;;;;5010452;28;20136;-82
2021/05/04 04:00:10;;;;;;;4.95;3.30;;;7.10;93.30;;;;;;5010081;28;20470;-81
2021/05/04 04:02:37;;;;;;;5.72;3.55;;;7.20;93.60;;;;;;5013074;28;20057;-80
2021/05/04 04:05:05;;;;;;;4.72;2.80;;;7.20;93.60;;;;;;5013155;28;20061;-81
2021/05/04 04:07:32;;;;;;;4.88;2.85;;;7.20;93.60;;;;;;5012771;28;20046;-81
2021/05/04 04:09:59;;;;;;;6.03;3.53;;;7.20;93.60;;;;;;5013092;28;20133;-80
2021/05/04 04:12:26;;;;;;;5.43;3.30;;;7.30;93.30;;;;;;5012994;28;20085;-80
2021/05/04 04:14:54;;;;;;;5.47;3.00;;;7.30;93.20;;;;;;5012993;28;20136;-81
2021/05/04 04:17:21;;;;;;;4.65;2.80;;;7.40;93.10;;;;;;5011875;28;20080;-81
2021/05/04 04:19:47;;;;;;;5.70;3.10;;;7.40;93.00;;;;;;5013365;28;20082;-79
2021/05/04 04:22:14;;;;;;;5.07;3.13;;;7.50;92.90;;;;;;5013279;28;20086;-79
2021/05/04 04:24:41;;;;;;;7.22;3.25;;;7.60;92.60;;;;;;5013089;28;20069;-80
2021/05/04 04:27:08;;;;;;;5.13;3.10;;;7.60;92.30;;;;;;5012236;28;20050;-82
2021/05/04 04:29:34;;;;;;;4.93;3.13;;;7.70;92.20;;;;;;5013362;28;20074;-81
2021/05/04 04:32:02;;;;;;;5.05;3.40;;;7.70;92.10;;;;;;5013415;28;20069;-83
2021/05/04 04:34:28;;;;;;;6.93;3.35;;;7.70;92.00;;;;;;5013318;28;20141;-83
2021/05/04 04:36:55;;;;;;;6.57;3.95;;;7.80;91.80;;;;;;5013906;28;20070;-83
2021/05/04 04:39:23;;;;;;;7.75;3.88;;;7.90;91.80;;;;;;5013655;28;20108;-84
2021/05/04 04:41:50;;;;;;;5.60;2.97;;;7.90;91.80;;;;;;5013691;28;20093;-85
2021/05/04 04:44:16;;;;;;;6.97;3.28;;;7.90;91.80;;;;;;5013594;28;20127;-83
2021/05/04 04:46:44;;;;;;;6.30;3.30;;;8.00;91.70;;;;;;5012198;28;20060;-83
2021/05/04 04:49:13;;;;;;;4.93;2.72;;;8.00;91.90;;;;;;5012462;28;20042;-83
2021/05/04 04:51:40;;;;;;;6.15;3.05;;;8.10;91.80;;;;;;5014049;28;20139;-84
2021/05/04 04:54:08;;;;;;;3.70;1.98;;;8.20;92.00;;;;;;5032094;28;20060;-84
2021/05/04 04:56:36;;;;;;;5.47;2.88;;;8.30;91.50;;;;;;5016750;28;20133;-83
2021/05/04 04:59:04;;;;;;;4.88;2.60;;;8.40;91.20;;;;;;5016740;28;20046;-83
2021/05/04 05:01:31;;;;;;;5.05;2.03;;;8.50;91.10;;;;;;5031903;28;20058;-83
2021/05/04 05:03:57;;;;;;;5.35;2.30;;;8.60;90.70;;;;;;5016771;28;20137;-84
2021/05/04 05:06:25;;;;;;;3.65;1.92;;;8.80;90.50;;;;;;5016988;28;20124;-84
2021/05/04 05:08:52;;;;;;;4.40;2.55;;;8.90;90.30;;;;;;5016626;28;20045;-84
2021/05/04 05:11:19;;;;;;;3.90;2.25;;;9.00;90.40;;;;;;5016757;28;20153;-83
2021/05/04 05:13:46;;;;;;;4.20;1.90;;;9.00;90.10;;;;;;5016788;28;20077;-83
2021/05/04 05:16:15;;;;;;;3.83;1.70;;;9.00;90.00;;;;;;5016824;28;20518;-83
2021/05/04 05:18:42;;;;;;;3.10;1.40;;;9.10;90.00;;;;;;5016698;28;20050;-84
2021/05/04 05:21:10;;;;;;;3.70;2.00;;;9.20;89.00;;;;;;5016431;28;20054;-83
2021/05/04 05:23:38;;;;;;;3.70;1.70;;;9.20;88.20;;;;;;5016302;28;20473;-83
2021/05/04 05:26:05;;;;;;;3.55;1.73;;;9.30;87.70;;;;;;5016495;28;20081;-83
2021/05/04 05:28:32;;;;;;;4.03;1.98;;;9.60;87.50;;;;;;5016590;28;20073;-83
2021/05/04 05:30:58;;;;;;;5.65;1.90;;;9.70;86.20;;;;;;5016070;28;20145;-83
2021/05/04 05:33:26;;;;;;;3.40;1.70;;;9.80;85.90;;;;;;5016721;28;20077;-84
2021/05/04 05:35:52;;;;;;;4.45;1.67;;;9.80;85.60;;;;;;5016122;28;20151;-83
2021/05/04 05:38:19;;;;;;;2.83;1.50;;;9.90;85.00;;;;;;5014835;28;20077;-84
2021/05/04 05:40:47;;;;;;;3.63;1.85;;;10.10;84.30;;;;;;5015938;28;20082;-84
2021/05/04 05:43:13;;;;;;;3.58;2.05;;;10.20;83.20;;;;;;5016416;28;20477;-83
2021/05/04 05:45:40;;;;;;;3.40;1.50;;;10.30;82.10;;;;;;5015905;28;20081;-83
2021/05/04 05:48:06;;;;;;;3.53;1.52;;;10.40;82.30;;;;;;5016044;28;20133;-83
2021/05/04 05:50:33;;;;;;;3.38;1.60;;;10.50;82.20;;;;;;5015988;28;20085;-83
2021/05/04 05:53:00;;;;;;;3.10;1.58;;;10.60;81.70;;;;;;4998549;28;20664;-84
2021/05/04 05:55:27;;;;;;;4.53;2.00;;;10.70;80.50;;;;;;5016243;28;20464;-83
2021/05/04 05:57:54;;;;;;;5.63;1.90;;;10.80;78.70;;;;;;5015639;28;20500;-83
2021/05/04 06:00:23;;;;;;;3.60;1.83;;;11.00;77.50;;;;;;5017434;28;20046;-83
2021/05/04 06:02:50;;;;;;;3.45;1.75;;;11.10;77.00;;;;;;5017250;28;20076;-83
2021/05/04 06:05:16;;;;;;;4.03;1.90;;;11.20;76.70;;;;;;5015921;28;20058;-83
2021/05/04 06:07:43;;;;;;;3.72;1.63;;;11.30;76.00;;;;;;5016065;28;20576;-83
2021/05/04 06:10:12;;;;;;;3.70;1.90;;;11.50;75.40;;;;;;5015481;28;20484;-82
2021/05/04 06:12:39;;;;;;;4.70;1.60;;;11.60;73.90;;;;;;5015770;28;20084;-84
2021/05/04 06:15:10;;;;;;;3.90;1.70;;;11.70;73.60;;;;;;5014670;28;20081;-82
2021/05/04 06:17:36;;;;;;;3.75;1.77;;;11.80;72.40;;;;;;5014724;28;20054;-82
2021/05/04 06:20:04;;;;;;;4.30;2.00;;;12.00;71.60;;;;;;5015352;28;20057;-83
2021/05/04 06:22:31;;;;;;;5.30;1.70;;;12.10;69.80;;;;;;5017374;28;20084;-83
2021/05/04 06:24:57;;;;;;;3.80;1.70;;;12.20;69.30;;;;;;5015609;28;20065;-82
2021/05/04 06:27:24;;;;;;;3.13;1.60;;;12.30;68.80;;;;;;5015366;28;20110;-83
2021/05/04 06:29:51;;;;;;;4.03;1.83;;;12.50;67.60;;;;;;5015222;28;20084;-82
2021/05/04 06:32:24;;;;;;;3.75;1.80;;;12.50;66.40;;;;;;5014281;28;20069;-82
2021/05/04 06:34:51;;;;;;;3.47;1.63;;;12.50;65.50;;;;;;5015184;28;20514;-81
2021/05/04 06:37:18;;;;;;;3.10;1.55;;;12.70;64.20;;;;;;5015206;28;20049;-83
2021/05/04 06:39:44;;;;;;;4.47;1.65;;;12.80;63.30;;;;;;5015262;28;20139;-82
2021/05/04 06:42:11;;;;;;;2.97;1.30;;;12.90;62.00;;;;;;5013973;28;20084;-83
2021/05/04 06:44:38;;;;;;;4.80;1.67;;;13.10;62.30;;;;;;5014790;28;20128;-82
2021/05/04 06:47:05;;;;;;;3.65;1.50;;;13.20;60.20;;;;;;5014763;28;20084;-82
2021/05/04 06:49:32;;;;;;;4.15;1.80;;;13.30;59.70;;;;;;5014908;28;20140;-82
2021/05/04 06:51:59;;;;;;;3.58;1.70;;;13.40;58.70;;;;;;5013898;28;20137;-82
2021/05/04 06:54:26;;;;;;;3.15;1.75;;;13.50;58.10;;;;;;5014575;28;20102;-82
2021/05/04 06:56:52;;;;;;;3.78;1.77;;;13.50;57.80;;;;;;5014593;28;20077;-82
2021/05/04 06:59:19;;;;;;;4.30;1.80;;;13.60;56.90;;;;;;5014726;28;20089;-82
2021/05/04 07:01:46;;;;;;;3.33;1.40;;;13.70;56.70;;;;;;5013158;28;20046;-83
2021/05/04 07:04:14;;;;;;;4.53;1.45;;;13.80;56.40;;;;;;5014817;28;20089;-82
2021/05/04 07:06:42;;;;;;;2.83;1.45;;;13.80;55.40;;;;;;5014244;28;20134;-81
2021/05/04 07:09:09;;;;;;;3.55;1.60;;;13.90;54.50;;;;;;5014384;28;20058;-82
2021/05/04 07:11:36;;;;;;;2.90;1.60;;;14.00;54.60;;;;;;5014197;28;20089;-83
2021/05/04 07:14:04;;;;;;;3.95;1.50;;;14.00;53.80;;;;;;5013852;28;20061;-82
2021/05/04 07:16:31;;;;;;;3.85;1.50;;;14.10;53.80;;;;;;5014326;28;20069;-83
2021/05/04 07:18:57;;;;;;;3.70;1.55;;;14.20;54.00;;;;;;5014302;28;20081;-82
2021/05/04 07:21:24;;;;;;;4.22;1.63;;;14.20;53.70;;;;;;5014527;28;20499;-83
2021/05/04 07:23:51;;;;;;;3.38;1.33;;;14.30;53.00;;;;;;5014362;28;20081;-83
2021/05/04 07:26:18;;;;;;;3.38;1.50;;;14.30;52.90;;;;;;5029307;28;20547;-82
2021/05/04 07:28:45;;;;;;;3.13;1.50;;;14.30;53.10;;;;;;5014059;28;20133;-82
2021/05/04 07:31:12;;;;;;;4.05;1.30;;;14.50;52.50;;;;;;5014453;28;20081;-81
2021/05/04 07:33:38;;;;;;;2.60;1.40;;;14.50;51.90;;;;;;5014464;28;20405;-82
2021/05/04 07:36:07;;;;;;;3.67;1.48;;;14.50;51.40;;;;;;5014237;28;20518;-82
2021/05/04 07:38:34;;;;;;;3.30;1.55;;;14.60;51.70;;;;;;5014032;28;20053;-81
2021/05/04 07:41:01;;;;;;;4.10;1.50;;;14.70;51.70;;;;;;5014004;28;20139;-81
2021/05/04 07:43:28;;;;;;;2.83;1.40;;;14.80;51.30;;;;;;5014934;28;20092;-83
2021/05/04 07:45:55;;;;;;;2.80;1.38;;;14.80;50.50;;;;;;5013850;28;20141;-81
2021/05/04 07:48:23;;;;;;;3.13;1.27;;;14.90;50.90;;;;;;5013800;28;20446;-81
2021/05/04 07:50:49;;;;;;;3.40;1.33;;;14.90;51.10;;;;;;5014074;28;20046;-81
2021/05/04 07:53:16;;;;;;;3.65;1.48;;;15.00;51.30;;;;;;5013668;28;20138;-81
2021/05/04 07:55:43;;;;;;;3.05;1.40;;;15.10;50.40;;;;;;5013835;28;20225;-81
2021/05/04 07:58:11;;;;;;;4.95;1.70;;;15.10;50.10;;;;;;5014382;28;20439;-81
2021/05/04 08:00:37;;;;;;;2.88;1.45;;;15.10;49.70;;;;;;5013875;28;20085;-81
2021/05/04 08:03:05;;;;;;;3.38;1.38;;;15.20;50.10;;;;;;5013549;28;20543;-81
2021/05/04 08:05:32;;;;;;;4.00;1.40;;;15.20;49.50;;;;;;5013793;28;20089;-81
2021/05/04 08:07:58;;;;;;;3.47;1.50;;;15.20;49.60;;;;;;5013761;28;20092;-81
2021/05/04 08:10:25;;;;;;;3.55;1.30;;;15.30;49.80;;;;;;5013403;28;20087;-81
2021/05/04 08:12:51;;;;;;;2.67;1.30;;;15.30;49.90;;;;;;5013998;28;20085;-81
2021/05/04 08:15:20;;;;;;;2.80;1.30;;;15.40;49.50;;;;;;5013637;28;20128;-81
2021/05/04 08:17:52;;;;;;;3.78;1.25;;;15.50;49.70;;;;;;5012391;28;20100;-81
2021/05/04 08:20:18;;;;;;;4.90;1.30;;;15.60;50.00;;;;;;5013995;28;20140;-81
2021/05/04 08:22:45;;;;;;;3.60;1.30;;;15.70;50.00;;;;;;5013412;28;20464;-81
2021/05/04 08:25:13;;;;;;;3.22;1.20;;;15.80;49.30;;;;;;5013423;28;20088;-81
2021/05/04 08:27:40;;;;;;;2.47;1.10;;;15.80;49.90;;;;;;5017263;28;20073;-80
2021/05/04 08:30:08;;;;;;;2.83;1.23;;;16.00;50.00;;;;;;5017525;28;20133;-81
2021/05/04 08:32:36;;;;;;;3.38;1.30;;;16.10;49.50;;;;;;5017194;28;20141;-80
2021/05/04 08:35:03;;;;;;;2.60;1.30;;;16.20;49.40;;;;;;5017807;28;20046;-80
2021/05/04 08:37:29;;;;;;;6.38;1.60;;;16.20;49.50;;;;;;5018516;28;20053;-82
2021/05/04 08:39:56;;;;;;;2.90;1.50;;;16.30;48.90;;;;;;5017958;28;20105;-81
2021/05/04 08:42:22;;;;;;;2.22;1.08;;;16.30;49.00;;;;;;5018864;28;20070;-81
2021/05/04 08:44:52;;;;;;;2.50;1.10;;;16.30;49.10;;;;;;5018136;28;20085;-81
2021/05/04 08:47:20;;;;;;;4.43;1.20;;;16.30;49.40;;;;;;5017190;28;20172;-81
2021/05/04 08:49:48;;;;;;;3.17;1.40;;;16.40;49.70;;;;;;5016809;28;20482;-81
2021/05/04 08:52:15;;;;;;;3.25;1.20;;;16.40;49.70;;;;;;5017099;28;20129;-81
2021/05/04 08:54:41;;;;;;;3.28;1.40;;;16.40;49.50;;;;;;5016491;28;20065;-79
2021/05/04 08:57:08;;;;;;;5.00;1.50;;;16.50;49.40;;;;;;5016370;28;20084;-78
2021/05/04 08:59:35;;;;;;;6.05;1.40;;;16.50;48.40;;;;;;5016378;28;20134;-78
2021/05/04 09:02:01;;;;;;;4.20;1.27;;;16.50;48.80;;;;;;5016249;28;20474;-77
2021/05/04 09:04:33;;;;;;;3.78;1.40;;;16.60;49.20;;;;;;5016055;28;20088;-78
2021/05/04 09:07:18;;;;;;;4.20;1.25;;;16.60;48.80;;;;;;5009466;28;20237;-77
2021/05/04 09:10:12;;;;;;;2.97;1.45;;;16.60;48.40;;;;;;5004632;28;20120;-79
2021/05/04 09:12:43;;;;;;;3.25;1.65;;;16.60;47.10;;;;;;5025526;28;20057;-78
2021/05/04 09:16:05;;;;;;;4.63;1.50;;;16.60;46.90;;;;;;5014798;28;20783;-78
2021/05/04 09:18:51;;;;;;;3.70;1.65;;;16.50;47.60;;;;;;5007600;28;20129;-78
2021/05/04 09:21:33;;;;;;;3.20;1.35;;;16.40;47.60;;;;;;5014924;28;20050;-78
2021/05/04 09:24:19;;;;;;;2.92;1.40;;;16.50;47.70;;;;;;5015501;28;20049;-78
2021/05/04 09:26:48;;;;;;;2.88;1.38;;;16.50;47.80;;;;;;5013757;28;20050;-77
2021/05/04 09:29:15;;;;;;;4.32;1.45;;;16.50;48.00;;;;;;5012898;28;20498;-78
2021/05/04 09:31:42;;;;;;;4.75;1.60;;;16.50;48.70;;;;;;5012756;28;20526;-77
2021/05/04 09:34:11;;;;;;;4.18;1.40;;;16.60;48.60;;;;;;5013150;28;20085;-78
2021/05/04 09:36:46;;;;;;;2.72;1.35;;;16.70;48.70;;;;;;5002025;28;20055;-78
2021/05/04 09:39:26;;;;;;;2.65;1.33;;;16.80;48.40;;;;;;4992862;28;20086;-76
2021/05/04 09:41:54;;;;;;;4.20;1.55;;;16.90;47.90;;;;;;4992762;28;20503;-79
2021/05/04 09:44:38;;;;;;;3.42;1.30;;;16.90;48.20;;;;;;4993157;28;20524;-78
2021/05/04 09:47:06;;;;;;;5.15;1.50;;;17.00;47.90;;;;;;4992902;28;20089;-77
2021/05/04 09:49:35;;;;;;;5.30;1.70;;;17.00;47.20;;;;;;4994235;28;20082;-77
2021/05/04 09:52:31;;;;;;;3.58;1.63;;;17.00;47.00;;;;;;4993285;28;20409;-76
2021/05/04 09:55:10;;;;;;;3.60;1.45;;;17.00;47.80;;;;;;4992954;28;20120;-77
2021/05/04 09:57:40;;;;;;;4.05;1.48;;;17.00;47.80;;;;;;4994402;28;20137;-76
2021/05/04 10:00:11;;;;;;;4.35;1.65;;;17.00;48.20;;;;;;4992780;28;20053;-77
2021/05/04 10:02:39;;;;;;;3.67;1.38;;;17.10;47.80;;;;;;4993638;28;20050;-77
2021/05/04 10:05:08;;;;;;;4.55;1.33;;;17.10;48.10;;;;;;4993680;28;20051;-76
2021/05/04 10:07:37;;;;;;;4.82;1.60;;;17.20;47.70;;;;;;5009695;28;20136;-76
2021/05/04 10:10:07;;;;;;;2.72;1.48;;;17.20;47.70;;;;;;5012519;28;20050;-79
2021/05/04 10:12:37;;;;;;;3.72;1.60;;;17.30;47.70;;;;;;5012785;28;20085;-78
2021/05/04 10:15:07;;;;;;;3.95;1.52;;;17.40;48.20;;;;;;5011730;28;20496;-77
2021/05/04 10:17:35;;;;;;;5.18;1.50;;;17.50;47.30;;;;;;5012325;28;20053;-77
2021/05/04 10:20:05;;;;;;;4.18;2.10;;;17.50;46.90;;;;;;5001589;28;20133;-77
2021/05/04 10:22:31;;;;;;;5.03;1.60;;;17.50;46.40;;;;;;4993695;28;20150;-77
2021/05/04 10:24:59;;;;;;;3.13;1.50;;;17.60;46.90;;;;;;4993743;28;20054;-76
2021/05/04 10:27:26;;;;;;;4.03;1.60;;;17.60;47.40;;;;;;4993718;28;20058;-78
2021/05/04 10:29:55;;;;;;;3.08;1.40;;;17.60;45.70;;;;;;4993232;28;20081;-77
2021/05/04 10:32:51;;;;;;;3.58;1.52;;;17.70;46.00;;;;;;4993109;28;20133;-77
2021/05/04 10:35:40;;;;;;;5.40;1.50;;;17.70;46.60;;;;;;4993313;28;20054;-76
2021/05/04 10:38:09;;;;;;;3.33;1.70;;;17.70;46.80;;;;;;4992370;28;20180;-77
2021/05/04 10:40:39;;;;;;;3.63;1.50;;;17.70;46.80;;;;;;4992103;28;20531;-77
2021/05/04 10:43:41;;;;;;;3.80;1.50;;;17.80;46.30;;;;;;4992125;28;20054;-78
2021/05/04 10:46:25;;;;;;;4.97;1.60;;;17.80;45.80;;;;;;4991292;28;20455;-79
2021/05/04 10:48:52;;;;;;;3.40;1.50;;;17.90;45.20;;;;;;4991806;28;20152;-77
2021/05/04 10:51:19;;;;;;;2.90;1.45;;;18.00;45.30;;;;;;4991665;28;20456;-78
2021/05/04 10:54:04;;;;;;;3.22;1.42;;;18.00;45.80;;;;;;4991146;28;20097;-77
2021/05/04 10:56:40;;;;;;;6.10;1.73;;;18.00;45.40;;;;;;4991705;28;20046;-78
2021/05/04 10:59:09;;;;;;;3.70;1.67;;;18.00;46.10;;;;;;4991228;28;20477;-78
2021/05/04 11:01:36;;;;;;;3.00;1.48;;;18.00;45.40;;;;;;4991530;28;20111;-77
2021/05/04 11:04:05;;;;;;;3.50;1.40;;;18.00;44.70;;;;;;4990946;28;20085;-77
2021/05/04 11:06:46;;;;;;;3.33;1.48;;;18.00;45.60;;;;;;4990189;28;20129;-77
2021/05/04 11:09:30;;;;;;;3.90;1.48;;;17.90;45.80;;;;;;4989836;28;20134;-77
2021/05/04 11:11:57;;;;;;;;;;;18.00;44.90;;;;;;4991544;28;20142;-77
2021/05/04 11:14:33;;;;;;;3.97;1.45;;;17.90;45.10;;;;;;4991191;28;20380;-75
2021/05/04 11:17:21;;;;;;;3.42;1.60;;;17.90;45.10;;;;;;4991819;28;20054;-78
2021/05/04 11:19:48;;;;;;;3.00;1.50;;;17.90;44.40;;;;;;4992106;28;20092;-76
2021/05/04 11:22:24;;;;;;;7.18;1.88;;;17.90;44.60;;;;;;4991927;28;20143;-76
2021/05/04 11:24:54;;;;;;;2.97;1.50;;;17.80;45.30;;;;;;4992239;28;20046;-77
2021/05/04 11:27:33;;;;;;;5.00;1.73;;;17.80;45.10;;;;;;5006598;28;20081;-78
2021/05/04 11:30:03;;;;;;;3.10;1.40;;;17.70;44.60;;;;;;4991991;28;20058;-78
2021/05/04 11:32:48;;;;;;;3.78;1.80;;;17.60;44.40;;;;;;4991257;28;20564;-77
2021/05/04 11:35:16;;;;;;;3.45;1.50;;;17.60;44.20;;;;;;4991874;28;20606;-77
2021/05/04 11:37:46;;;;;;;3.95;1.52;;;17.50;44.60;;;;;;5001500;28;20455;-79
2021/05/04 11:40:24;;;;;;;4.95;2.15;;;17.50;45.20;;;;;;4990926;28;20104;-76
2021/05/04 11:42:54;;;;;;;3.15;1.50;;;17.60;44.80;;;;;;4990077;28;20046;-76
2021/05/04 11:45:23;;;;;;;4.53;2.03;;;17.60;44.70;;;;;;4989668;28;20084;-76
2021/05/04 11:47:53;;;;;;;4.95;1.77;;;17.60;44.60;;;;;;4989936;28;20521;-76
2021/05/04 11:50:21;;;;;;;3.72;1.55;;;17.60;45.10;;;;;;4989931;28;20137;-75
2021/05/04 11:52:51;;;;;;;4.20;1.50;;;17.60;44.90;;;;;;4999526;28;20635;-77
2021/05/04 11:55:20;;;;;;;4.75;1.60;;;17.50;44.80;;;;;;5002063;28;20140;-76
2021/05/04 11:57:49;;;;;;;4.85;1.63;;;17.60;45.10;;;;;;5009992;28;20057;-75
2021/05/04 12:00:19;;;;;;;4.03;1.63;;;17.50;45.50;;;;;;5010037;28;20137;-76
2021/05/04 12:02:46;;;;;;;3.90;1.80;;;17.50;46.00;;;;;;5013500;28;20480;-78
2021/05/04 12:05:16;;;;;;;3.38;1.60;;;17.40;45.90;;;;;;5007794;28;20066;-78
2021/05/04 12:07:46;;;;;;;3.38;1.55;;;17.40;46.30;;;;;;5003018;28;20050;-78
2021/05/04 12:10:31;;;;;;;5.55;1.50;;;17.30;46.20;;;;;;4994065;28;20501;-78
2021/05/04 12:13:01;;;;;;;3.22;1.70;;;17.30;46.70;;;;;;4993774;28;20054;-77
2021/05/04 12:15:30;;;;;;;4.45;1.40;;;17.20;46.90;;;;;;4993371;28;20078;-76
2021/05/04 12:18:02;;;;;;;5.43;1.50;;;17.10;47.50;;;;;;4993337;28;20073;-78
2021/05/04 12:20:33;;;;;;;4.07;1.60;;;17.00;48.20;;;;;;4994473;28;20133;-76
2021/05/04 12:23:03;;;;;;;4.07;1.70;;;17.00;48.60;;;;;;4993422;28;20050;-75
2021/05/04 12:25:51;;;;;;;4.00;1.60;;;17.00;48.90;;;;;;4993928;28;20129;-77
2021/05/04 12:28:21;;;;;;;2.97;1.30;;;17.00;48.90;;;;;;4992384;28;20050;-75
2021/05/04 12:30:50;;;;;;;7.05;1.70;;;17.00;48.90;;;;;;4992798;28;20112;-77
2021/05/04 12:33:20;;;;;;;4.15;1.85;;;17.00;48.20;;;;;;4992380;28;20491;-77
2021/05/04 12:36:01;;;;;;;3.45;1.50;;;17.00;47.40;;;;;;5005255;28;20136;-78
2021/05/04 12:38:42;;;;;;;4.60;1.70;;;17.00;46.60;;;;;;4993773;28;20050;-76
2021/05/04 12:41:13;;;;;;;3.20;1.55;;;17.00;47.60;;;;;;5006167;28;20054;-77
2021/05/04 12:43:43;;;;;;;5.75;1.50;;;17.10;47.10;;;;;;5012701;28;20062;-78
2021/05/04 12:46:17;;;;;;;4.22;1.75;;;17.00;47.90;;;;;;5012887;28;20134;-78
2021/05/04 12:48:45;;;;;;;5.57;1.60;;;17.00;47.30;;;;;;5012517;28;20049;-77
2021/05/04 12:51:15;;;;;;;2.72;1.30;;;17.00;47.20;;;;;;5011347;28;20136;-77
2021/05/04 12:53:46;;;;;;;3.40;1.25;;;17.00;47.60;;;;;;5008384;28;20046;-76
2021/05/04 12:56:15;;;;;;;3.13;1.50;;;17.10;48.70;;;;;;4996107;28;20378;-77
2021/05/04 12:59:01;;;;;;;5.22;1.73;;;17.10;48.10;;;;;;4993213;28;20046;-76
2021/05/04 13:01:37;;;;;;;4.20;1.48;;;17.10;47.70;;;;;;4993928;28;20481;-77